createdAt,value
2018-05-10T00:07:48.568Z,52.20
2018-05-10T00:12:57.024Z,52.10
2018-05-10T00:17:59.609Z,52.40
2018-05-10T00:23:02.827Z,52.60
2018-05-10T00:28:05.391Z,52.50
2018-05-10T00:33:07.960Z,52.80
2018-05-10T00:38:10.552Z,53.00
2018-05-10T00:43:14.042Z,53.50
2018-05-10T00:48:16.603Z,53.60
2018-05-10T00:53:22.525Z,53.60
2018-05-10T00:58:25.862Z,54.30
2018-05-10T01:03:28.738Z,54.30
2018-05-10T01:08:31.300Z,54.10
2018-05-10T01:13:33.916Z,54.10
2018-05-10T01:18:40.462Z,54.20
2018-05-10T01:23:43.245Z,54.50
2018-05-10T01:28:47.003Z,55.10
2018-05-10T01:33:49.588Z,55.10
2018-05-10T01:38:52.174Z,54.90
2018-05-10T01:43:54.777Z,55.20
2018-05-10T01:48:57.585Z,55.20
2018-05-10T01:54:00.741Z,55.00
2018-05-10T01:59:03.956Z,55.20
2018-05-10T02:04:06.861Z,55.30
2018-05-10T02:14:18.844Z,55.30
2018-05-10T02:19:22.168Z,55.60
2018-05-10T02:24:25.990Z,55.40
2018-05-10T02:29:32.598Z,55.10
2018-05-10T02:34:35.182Z,54.90
2018-05-10T02:39:38.504Z,55.00
2018-05-10T02:44:42.521Z,55.50
2018-05-10T02:49:46.302Z,56.00
2018-05-10T02:54:49.134Z,55.90
2018-05-10T02:59:51.699Z,56.00
2018-05-10T03:04:54.316Z,56.20
2018-05-10T03:10:00.071Z,56.50
2018-05-10T03:15:02.625Z,56.60
2018-05-10T03:20:05.975Z,62.00
2018-05-10T03:25:09.782Z,61.80
2018-05-10T03:30:14.989Z,61.30
2018-05-10T03:35:17.557Z,61.30
2018-05-10T03:40:20.117Z,62.20
2018-05-10T03:45:22.687Z,63.10
2018-05-10T03:50:26.041Z,62.40
2018-05-10T03:55:29.371Z,60.90
2018-05-10T04:00:33.295Z,60.60
2018-05-10T04:05:47.613Z,60.60
2018-05-10T04:11:02.311Z,60.60
2018-05-10T04:16:05.485Z,60.20
2018-05-10T04:21:09.016Z,59.90
2018-05-10T04:26:11.849Z,60.30
2018-05-10T04:31:15.058Z,59.90
2018-05-10T04:36:19.491Z,59.90
2018-05-10T04:41:22.063Z,60.50
2018-05-10T04:46:24.650Z,60.60
2018-05-10T04:51:27.684Z,60.70
2018-05-10T04:56:30.277Z,60.80
2018-05-10T05:01:32.846Z,61.80
2018-05-10T05:06:36.056Z,61.70
2018-05-10T05:11:40.439Z,62.00
2018-05-10T05:16:43.029Z,61.80
2018-05-10T05:21:45.596Z,61.50
2018-05-10T05:26:48.247Z,61.80
2018-05-10T05:42:58.644Z,61.90
2018-05-10T05:48:01.976Z,61.90
2018-05-10T05:53:05.363Z,61.80
2018-05-10T05:58:07.920Z,61.60
2018-05-10T06:03:10.488Z,61.60
2018-05-10T06:08:13.064Z,61.30
2018-05-10T06:13:17.266Z,62.30
2018-05-10T06:18:19.832Z,62.10
2018-05-10T06:23:23.052Z,62.00
2018-05-10T06:28:25.605Z,62.20
2018-05-10T06:33:28.965Z,60.80
2018-05-10T06:38:31.629Z,60.70
2018-05-10T06:43:34.953Z,61.40
2018-05-10T06:48:38.304Z,62.00
2018-05-10T06:53:41.322Z,62.00
2018-05-10T06:58:45.279Z,63.30
2018-05-10T07:03:48.609Z,63.20
2018-05-10T07:08:51.950Z,63.90
2018-05-10T07:13:56.122Z,63.90
2018-05-10T07:18:59.424Z,64.10
2018-05-10T07:24:03.461Z,65.40
2018-05-10T07:29:06.040Z,64.40
2018-05-10T07:34:08.610Z,63.50
2018-05-10T07:39:11.941Z,61.60
2018-05-10T07:44:15.222Z,61.60
2018-05-10T07:49:18.014Z,62.70
2018-05-10T07:54:21.032Z,62.80
2018-05-10T07:59:23.596Z,61.50
2018-05-10T08:04:27.288Z,59.80
2018-05-10T08:09:30.073Z,61.30
2018-05-10T08:14:33.488Z,58.10
2018-05-10T08:19:36.825Z,57.20
2018-05-10T08:24:39.392Z,57.20
2018-05-10T08:29:49.824Z,58.20
2018-05-10T08:34:52.445Z,58.70
2018-05-10T08:39:54.992Z,59.50
2018-05-10T08:44:58.320Z,60.10
2018-05-10T08:50:02.858Z,60.00
2018-05-10T08:55:05.465Z,59.90
2018-05-10T09:00:08.035Z,59.30
2018-05-10T09:05:11.939Z,58.80
2018-05-10T09:10:14.500Z,58.80
2018-05-10T09:15:17.065Z,59.30
2018-05-10T09:20:20.464Z,60.70
2018-05-10T09:25:23.931Z,60.60
2018-05-10T09:30:26.807Z,61.30
2018-05-10T09:35:30.616Z,63.10
2018-05-10T09:40:33.880Z,63.10
2018-05-10T09:45:36.439Z,63.10
2018-05-10T09:50:40.240Z,63.90
2018-05-10T09:55:43.369Z,63.80
2018-05-10T10:00:46.715Z,64.50
2018-05-10T10:05:49.878Z,64.40
2018-05-10T10:10:52.893Z,63.90
2018-05-10T10:15:56.033Z,64.10
2018-05-10T10:20:58.601Z,65.00
2018-05-10T10:26:01.482Z,66.50
2018-05-10T10:31:04.059Z,66.10
2018-05-10T10:36:06.896Z,68.30
2018-05-10T10:41:09.439Z,67.70
2018-05-10T10:46:12.000Z,69.60
2018-05-10T10:51:14.547Z,70.90
2018-05-10T10:56:18.544Z,69.50
2018-05-10T11:01:24.491Z,70.00
2018-05-10T11:06:27.128Z,69.60
2018-05-10T11:11:30.468Z,67.80
2018-05-10T11:16:33.043Z,67.70
2018-05-10T11:21:36.384Z,66.10
2018-05-10T11:26:38.969Z,66.10
2018-05-10T11:31:42.301Z,64.20
2018-05-10T11:36:44.857Z,64.20
2018-05-10T11:41:47.419Z,63.70
2018-05-10T11:47:04.981Z,63.80
2018-05-10T11:52:08.706Z,63.10
2018-05-10T11:57:11.308Z,62.70
2018-05-10T12:02:16.462Z,62.40
2018-05-10T12:07:19.286Z,62.20
2018-05-10T12:12:21.852Z,60.90
2018-05-10T12:17:24.419Z,62.50
2018-05-10T12:22:26.980Z,66.50
2018-05-10T12:27:30.869Z,69.70
2018-05-10T12:32:33.704Z,69.60
2018-05-10T12:37:36.300Z,69.90
2018-05-10T12:42:38.866Z,70.40
2018-05-10T12:47:42.526Z,71.40
2018-05-10T12:52:45.135Z,68.20
2018-05-10T12:57:48.014Z,68.00
2018-05-10T13:02:50.781Z,70.30
2018-05-10T13:07:53.881Z,69.40
2018-05-10T13:12:56.437Z,68.40
2018-05-10T13:17:59.673Z,67.70
2018-05-10T13:23:05.054Z,67.50
2018-05-10T13:28:08.081Z,67.60
2018-05-10T13:33:11.230Z,67.70
2018-05-10T13:38:13.788Z,66.80
2018-05-10T13:43:16.948Z,66.60
2018-05-10T13:48:19.508Z,65.60
2018-05-10T13:53:22.526Z,65.60
2018-05-10T13:58:25.096Z,64.50
2018-05-10T14:03:27.688Z,63.80
2018-05-10T14:08:30.285Z,64.10
2018-05-10T14:13:32.860Z,63.30
2018-05-10T14:18:36.196Z,63.60
2018-05-10T14:23:38.848Z,63.50
2018-05-10T14:28:41.621Z,63.70
2018-05-10T14:33:44.181Z,65.00
2018-05-10T14:38:48.661Z,66.50
2018-05-10T14:43:51.260Z,66.40
2018-05-10T14:48:53.822Z,69.20
2018-05-10T14:53:57.170Z,75.70
2018-05-10T14:59:00.076Z,75.70
2018-05-10T15:04:02.738Z,76.10
2018-05-10T15:09:06.349Z,81.30
2018-05-10T15:14:09.351Z,81.20
2018-05-10T15:19:26.789Z,82.10
2018-05-10T15:24:30.368Z,81.60
2018-05-10T15:29:32.939Z,81.50
2018-05-10T15:34:36.711Z,82.90
2018-05-10T15:39:46.814Z,82.80
2018-05-10T15:44:49.412Z,81.90
2018-05-10T15:49:52.182Z,80.50
2018-05-10T15:54:55.268Z,79.40
2018-05-10T15:59:58.100Z,79.20
2018-05-10T16:05:00.667Z,74.50
2018-05-10T16:10:03.241Z,70.40
2018-05-10T16:15:06.572Z,67.20
2018-05-10T16:20:09.905Z,65.90
2018-05-10T16:25:12.474Z,65.90
2018-05-10T16:30:17.745Z,57.30
2018-05-10T16:35:21.851Z,57.30
2018-05-10T16:40:24.870Z,54.80
2018-05-10T16:45:27.437Z,54.70
2018-05-10T16:50:30.020Z,53.90
2018-05-10T16:55:32.672Z,53.50
2018-05-10T17:00:36.021Z,53.30
2018-05-10T17:05:39.415Z,53.20
2018-05-10T17:10:43.580Z,53.20
2018-05-10T17:15:46.608Z,53.20
2018-05-10T17:20:51.120Z,53.40
2018-05-10T17:25:53.701Z,53.10
2018-05-10T17:30:56.367Z,53.90
2018-05-10T17:35:58.880Z,54.00
2018-05-10T17:41:02.295Z,54.90
2018-05-10T17:46:05.933Z,54.60
2018-05-10T17:51:09.276Z,54.70
2018-05-10T17:56:12.407Z,54.70
2018-05-10T18:01:14.966Z,54.00
2018-05-10T18:06:17.521Z,55.50
2018-05-10T18:11:20.520Z,56.80
2018-05-10T18:16:23.084Z,56.80
2018-05-10T18:21:25.944Z,55.90
2018-05-10T18:26:28.507Z,55.80
2018-05-10T18:31:31.694Z,55.00
2018-05-10T18:36:34.266Z,54.70
2018-05-10T18:41:37.898Z,54.90
2018-05-10T18:46:41.940Z,55.30
2018-05-10T18:51:44.605Z,55.30
2018-05-10T18:56:47.184Z,56.00
2018-05-10T19:01:50.382Z,56.20
2018-05-10T19:06:53.388Z,55.70
2018-05-10T19:11:55.958Z,55.30
2018-05-10T19:17:00.326Z,55.70
2018-05-10T19:22:02.907Z,55.80
2018-05-10T19:27:05.580Z,54.90
2018-05-10T19:32:09.706Z,54.60
2018-05-10T19:37:13.091Z,55.30
2018-05-10T19:42:15.622Z,55.30
2018-05-10T19:47:18.950Z,54.60
2018-05-10T19:52:22.296Z,53.80
2018-05-10T19:57:24.845Z,53.70
2018-05-10T20:02:27.861Z,53.50
2018-05-10T20:07:31.188Z,55.80
2018-05-10T20:12:34.331Z,55.80
2018-05-10T20:17:36.905Z,57.00
2018-05-10T20:22:39.466Z,57.90
2018-05-10T20:27:42.072Z,58.10
2018-05-10T20:32:44.632Z,58.70
2018-05-10T20:37:47.735Z,59.40
2018-05-10T20:42:50.962Z,58.70
2018-05-10T20:47:54.215Z,59.30
2018-05-10T20:52:57.537Z,59.60
2018-05-10T20:58:01.160Z,59.40
2018-05-10T21:03:06.934Z,59.50
2018-05-10T21:08:10.097Z,59.30
2018-05-10T21:13:12.737Z,59.70
2018-05-10T21:18:16.060Z,60.80
2018-05-10T21:23:19.836Z,60.60
2018-05-10T21:28:22.706Z,60.60
2018-05-10T21:33:25.264Z,61.40
2018-05-10T21:38:27.834Z,60.80
2018-05-10T21:43:30.911Z,61.10
2018-05-10T21:48:34.193Z,61.60
2018-05-10T21:53:39.272Z,61.60
2018-05-10T21:58:41.873Z,63.00
2018-05-10T22:03:45.253Z,62.10
2018-05-10T22:08:50.316Z,61.80
2018-05-10T22:13:57.621Z,63.40
2018-05-10T22:19:01.306Z,63.40
2018-05-10T22:24:03.896Z,62.80
2018-05-10T22:29:06.474Z,62.70
2018-05-10T22:34:10.783Z,64.10
2018-05-10T22:39:13.394Z,65.10
2018-05-10T22:44:16.766Z,64.90
2018-05-10T22:49:19.825Z,64.80
2018-05-10T22:54:23.173Z,66.00
2018-05-10T22:59:28.565Z,66.00
2018-05-10T23:04:31.702Z,66.10
2018-05-10T23:09:34.266Z,65.50
2018-05-10T23:14:36.837Z,65.80
2018-05-10T23:19:45.899Z,65.90
2018-05-10T23:24:48.456Z,66.10
2018-05-10T23:29:52.128Z,65.80
2018-05-10T23:34:56.628Z,65.80
2018-05-10T23:40:00.134Z,65.10
2018-05-10T23:45:03.668Z,65.20
2018-05-10T23:50:08.775Z,65.10
2018-05-10T23:55:11.632Z,65.10
